Time;durP1;ratioP1;P1;durP2;ratioP2;P2;SDS_P1;SDS_P2;PMS_P1;PMS_P2;Temp;Humidity;BMP_temperature;BMP_pressure;BME280_temperature;BME280_humidity;BME280_pressure;Samples;Min_cycle;Max_cycle;Signal;HPM_P1;HPM_P2
2022/08/29 00:03:57;;;;;;;45.53;21.00;;;18.10;99.90;;;;;;9541654;31;20043;-79
2022/08/29 00:08:58;;;;;;;47.15;22.23;;;18.00;99.90;;;;;;9547441;31;20049;-79
2022/08/29 00:13:58;;;;;;;44.13;21.33;;;18.00;99.90;;;;;;9540158;31;20047;-79
2022/08/29 00:18:59;;;;;;;46.58;22.50;;;18.00;99.90;;;;;;9533878;31;20040;-78
2022/08/29 00:24:00;;;;;;;48.35;23.23;;;18.00;99.90;;;;;;9537597;31;20043;-79
2022/08/29 00:29:01;;;;;;;49.45;22.92;;;18.00;99.90;;;;;;9534913;31;20036;-79
2022/08/29 00:34:02;;;;;;;44.33;22.75;;;18.00;99.90;;;;;;9533936;30;20430;-79
2022/08/29 00:39:04;;;;;;;41.20;20.63;;;18.00;99.90;;;;;;9532681;31;20047;-79
2022/08/29 00:44:05;;;;;;;50.20;23.60;;;18.00;99.90;;;;;;9537336;31;20055;-79
2022/08/29 00:49:17;;;;;;;47.25;21.98;;;18.00;99.90;;;;;;9528318;31;20048;-79
2022/08/29 00:54:18;;;;;;;45.33;22.10;;;18.00;99.90;;;;;;9545671;31;20834;-79
2022/08/29 00:59:30;;;;;;;48.35;22.92;;;18.00;99.90;;;;;;9556594;31;20123;-80
2022/08/29 01:04:32;;;;;;;43.85;23.10;;;18.00;99.90;;;;;;9543365;31;20058;-80
2022/08/29 01:09:36;;;;;;;45.60;22.98;;;18.00;99.90;;;;;;9535581;31;20070;-80
2022/08/29 01:14:37;;;;;;;41.20;20.10;;;18.00;99.90;;;;;;9542895;31;20047;-78
2022/08/29 01:19:59;;;;;;;49.70;20.60;;;18.00;99.90;;;;;;9539383;31;20068;-78
2022/08/29 01:25:04;;;;;;;42.97;19.33;;;18.00;99.90;;;;;;9543333;31;20062;-79
2022/08/29 01:30:06;;;;;;;59.33;23.02;;;18.00;99.90;;;;;;9537447;31;20052;-79
2022/08/29 01:35:07;;;;;;;47.65;21.80;;;17.90;99.90;;;;;;9553167;31;20039;-79
2022/08/29 01:40:10;;;;;;;53.47;21.77;;;17.90;99.90;;;;;;9549220;31;20035;-79
2022/08/29 01:45:11;;;;;;;39.35;19.80;;;17.90;99.90;;;;;;9551428;31;20068;-79
2022/08/29 01:50:14;;;;;;;42.22;20.33;;;17.90;99.90;;;;;;9560777;31;20040;-79
2022/08/29 01:55:15;;;;;;;38.13;19.05;;;17.90;99.90;;;;;;9545419;31;20105;-79
2022/08/29 02:00:16;;;;;;;39.85;20.88;;;17.90;99.90;;;;;;9547499;31;20041;-78
2022/08/29 02:05:21;;;;;;;42.90;20.55;;;17.90;99.90;;;;;;9541097;31;20046;-78
2022/08/29 02:10:23;;;;;;;42.72;19.95;;;17.90;99.90;;;;;;9549458;31;20050;-79
2022/08/29 02:15:24;;;;;;;43.08;20.52;;;17.90;99.90;;;;;;9552267;31;20110;-79
2022/08/29 02:20:24;;;;;;;46.67;21.27;;;17.80;99.90;;;;;;9543059;31;20054;-79
2022/08/29 02:25:40;;;;;;;42.70;20.88;;;17.80;99.90;;;;;;9549557;30;20131;-80
2022/08/29 02:30:42;;;;;;;37.97;18.70;;;17.80;99.90;;;;;;9553878;31;20046;-79
2022/08/29 02:35:43;;;;;;;40.70;20.45;;;17.80;99.90;;;;;;9556653;31;20060;-79
2022/08/29 02:40:45;;;;;;;47.42;21.23;;;17.70;99.90;;;;;;9543423;31;20055;-79
2022/08/29 02:45:47;;;;;;;47.20;20.70;;;17.70;99.90;;;;;;9544649;31;20046;-79
2022/08/29 02:50:52;;;;;;;44.22;21.73;;;17.70;99.90;;;;;;9554186;31;20107;-79
2022/08/29 02:55:53;;;;;;;37.67;20.27;;;17.80;99.90;;;;;;9545303;31;20131;-79
2022/08/29 03:00:55;;;;;;;38.10;18.77;;;17.70;99.90;;;;;;9553369;31;20478;-79
2022/08/29 03:05:55;;;;;;;41.25;21.00;;;17.70;99.90;;;;;;9539606;31;20063;-79
2022/08/29 03:10:57;;;;;;;41.63;19.65;;;17.60;99.90;;;;;;9553705;31;20039;-80
2022/08/29 03:15:57;;;;;;;37.28;18.35;;;17.60;99.90;;;;;;9542303;31;20051;-79
2022/08/29 03:20:58;;;;;;;39.50;19.98;;;17.60;99.90;;;;;;9564689;31;20043;-80
2022/08/29 03:25:58;;;;;;;37.45;19.77;;;17.50;99.90;;;;;;9539748;30;20179;-78
2022/08/29 03:30:59;;;;;;;44.05;19.27;;;17.50;99.90;;;;;;9530545;31;20484;-78
2022/08/29 03:36:00;;;;;;;41.92;20.30;;;17.50;99.90;;;;;;9531913;31;20398;-79
2022/08/29 03:41:00;;;;;;;41.20;20.42;;;17.50;99.90;;;;;;9557856;31;20048;-78
2022/08/29 03:46:01;;;;;;;42.15;19.88;;;17.50;99.90;;;;;;9542307;31;20043;-78
2022/08/29 03:51:02;;;;;;;39.38;19.67;;;17.50;99.90;;;;;;9538059;31;20802;-78
2022/08/29 03:56:04;;;;;;;35.00;17.42;;;17.40;99.90;;;;;;9544522;31;20051;-79
2022/08/29 04:01:05;;;;;;;33.92;17.15;;;17.40;99.90;;;;;;9553467;31;20506;-79
2022/08/29 04:06:06;;;;;;;30.67;15.05;;;17.40;99.90;;;;;;9546232;31;20044;-78
2022/08/29 04:11:11;;;;;;;37.83;16.75;;;17.40;99.90;;;;;;9547473;31;20086;-79
2022/08/29 04:16:19;;;;;;;25.55;14.45;;;17.40;99.90;;;;;;9543757;31;20051;-79
2022/08/29 04:21:19;;;;;;;30.45;15.38;;;17.40;99.90;;;;;;9541968;30;20104;-78
2022/08/29 04:26:20;;;;;;;30.58;15.43;;;17.40;99.90;;;;;;9543791;31;20048;-81
2022/08/29 04:31:21;;;;;;;34.75;16.88;;;17.30;99.90;;;;;;9538432;31;20035;-79
2022/08/29 04:36:22;;;;;;;28.45;15.35;;;17.40;99.90;;;;;;9538468;31;20083;-84
2022/08/29 04:41:22;;;;;;;28.67;14.18;;;17.40;99.90;;;;;;9542947;31;20522;-84
2022/08/29 04:46:23;;;;;;;31.30;15.85;;;17.40;99.90;;;;;;9533717;31;20043;-83
2022/08/29 04:51:24;;;;;;;30.23;15.27;;;17.30;99.90;;;;;;9547992;31;20044;-83
2022/08/29 04:56:25;;;;;;;28.55;15.13;;;17.30;99.90;;;;;;9540123;31;20144;-83
2022/08/29 05:01:25;;;;;;;26.83;15.40;;;17.40;99.90;;;;;;9549495;31;20044;-83
2022/08/29 05:06:26;;;;;;;27.08;16.20;;;17.40;99.90;;;;;;9530771;31;20032;-84
2022/08/29 05:11:29;;;;;;;32.30;16.65;;;17.40;99.90;;;;;;9541563;31;20058;-83
2022/08/29 05:16:30;;;;;;;35.42;15.75;;;17.30;99.90;;;;;;9560774;31;20040;-83
2022/08/29 05:21:34;;;;;;;29.77;15.98;;;17.30;99.90;;;;;;9555104;31;20068;-83
2022/08/29 05:26:38;;;;;;;36.00;18.35;;;17.30;99.90;;;;;;9554273;31;20039;-83
2022/08/29 05:31:40;;;;;;;34.05;17.75;;;17.30;99.90;;;;;;9555489;31;20048;-84
2022/08/29 05:36:41;;;;;;;31.80;16.70;;;17.30;99.90;;;;;;9545229;31;20036;-84
2022/08/29 05:41:42;;;;;;;24.75;15.55;;;17.40;99.90;;;;;;9551294;31;20039;-83
2022/08/29 05:46:42;;;;;;;32.17;17.73;;;17.40;99.90;;;;;;9554221;30;20069;-83
2022/08/29 05:51:43;;;;;;;31.58;17.92;;;17.40;99.90;;;;;;9551508;31;20052;-83
2022/08/29 05:56:44;;;;;;;25.58;16.45;;;17.50;99.90;;;;;;9553643;31;20135;-84
2022/08/29 06:01:47;;;;;;;33.33;18.67;;;17.70;99.90;;;;;;9545357;31;20059;-83
2022/08/29 06:06:49;;;;;;;33.33;17.90;;;17.70;99.90;;;;;;9545791;31;20044;-83
2022/08/29 06:11:51;;;;;;;33.60;19.95;;;17.70;99.90;;;;;;9551053;31;20055;-83
2022/08/29 06:17:04;;;;;;;37.35;19.88;;;17.60;99.90;;;;;;9549760;31;20051;-84
2022/08/29 06:22:07;;;;;;;33.03;20.20;;;17.70;99.90;;;;;;9533864;31;20067;-83
2022/08/29 06:27:08;;;;;;;33.25;20.77;;;17.70;99.90;;;;;;9554004;31;20511;-83
2022/08/29 06:32:08;;;;;;;33.97;19.50;;;17.80;99.90;;;;;;9547373;30;20039;-84
2022/08/29 06:37:09;;;;;;;25.13;16.35;;;18.10;99.90;;;;;;9543779;31;20047;-83
2022/08/29 06:42:09;;;;;;;32.70;19.58;;;18.40;99.90;;;;;;9543189;31;20198;-84
2022/08/29 06:47:10;;;;;;;27.23;17.73;;;18.50;99.90;;;;;;9550912;31;20499;-83
2022/08/29 06:52:11;;;;;;;23.90;15.82;;;18.80;99.90;;;;;;9543780;31;20058;-84
2022/08/29 06:57:12;;;;;;;25.23;15.05;;;19.00;99.90;;;;;;9545212;31;20437;-84
2022/08/29 07:02:12;;;;;;;27.73;17.73;;;19.00;99.90;;;;;;9543330;31;20036;-83
2022/08/29 07:07:13;;;;;;;23.70;14.73;;;18.80;99.90;;;;;;9554940;31;20585;-83
2022/08/29 07:12:13;;;;;;;34.60;20.10;;;18.80;99.90;;;;;;9551284;31;20074;-84
2022/08/29 07:17:14;;;;;;;28.35;16.20;;;18.70;99.90;;;;;;9547213;31;20042;-83
2022/08/29 07:22:15;;;;;;;24.77;14.23;;;18.70;99.90;;;;;;9554034;31;20123;-84
2022/08/29 07:27:15;;;;;;;22.02;13.10;;;18.80;99.90;;;;;;9548914;31;20550;-84
2022/08/29 07:32:16;;;;;;;20.90;12.63;;;19.00;99.90;;;;;;9542427;31;20044;-83
2022/08/29 07:37:16;;;;;;;23.05;11.98;;;19.00;99.90;;;;;;9552860;30;20039;-84
2022/08/29 07:42:17;;;;;;;18.95;12.63;;;19.20;99.90;;;;;;9551493;31;20131;-84
2022/08/29 07:47:19;;;;;;;17.23;10.10;;;19.50;99.90;;;;;;9549575;31;20048;-84
2022/08/29 07:52:20;;;;;;;16.20;10.50;;;19.80;99.90;;;;;;9532981;31;20055;-85
2022/08/29 07:57:21;;;;;;;15.85;9.32;;;20.10;99.90;;;;;;9531710;31;20040;-85
2022/08/29 08:02:22;;;;;;;15.82;10.60;;;20.30;99.90;;;;;;9529764;31;20032;-85
2022/08/29 08:07:31;;;;;;;15.52;8.85;;;20.30;99.90;;;;;;9533695;31;20059;-83
2022/08/29 08:12:32;;;;;;;15.98;10.18;;;20.40;99.90;;;;;;9532420;31;20111;-84
2022/08/29 08:17:33;;;;;;;12.98;8.90;;;20.60;99.90;;;;;;9542995;31;20091;-83
2022/08/29 08:22:34;;;;;;;14.32;8.75;;;20.60;99.90;;;;;;9533515;31;20514;-84
2022/08/29 08:28:17;;;;;;;12.45;8.20;;;20.90;99.90;;;;;;9530527;31;20063;-83
2022/08/29 08:33:18;;;;;;;13.85;8.38;;;21.10;99.90;;;;;;9526328;31;20462;-82
2022/08/29 08:38:20;;;;;;;10.52;7.43;;;21.30;99.90;;;;;;9523687;31;20146;-82
2022/08/29 08:43:27;;;;;;;10.27;7.70;;;21.10;99.90;;;;;;9528017;31;20119;-82
2022/08/29 08:48:35;;;;;;;10.23;6.97;;;20.40;99.90;;;;;;9536199;31;20195;-82
2022/08/29 08:53:43;;;;;;;9.05;6.20;;;20.70;99.90;;;;;;9530163;31;20148;-83
2022/08/29 08:59:15;;;;;;;9.02;6.45;;;21.30;99.90;;;;;;9532723;31;20032;-82
2022/08/29 09:04:51;;;;;;;10.27;6.85;;;21.30;99.90;;;;;;9527916;31;20055;-82
2022/08/29 09:10:10;;;;;;;8.32;5.47;;;21.20;99.90;;;;;;9458343;31;20063;-82
2022/08/29 09:15:14;;;;;;;8.63;5.57;;;21.70;99.90;;;;;;9526628;31;20055;-82
2022/08/29 09:20:21;;;;;;;8.17;5.60;;;21.80;99.90;;;;;;9531169;31;20044;-82
2022/08/29 09:25:22;;;;;;;8.23;5.75;;;21.60;99.90;;;;;;9547808;31;20074;-83
2022/08/29 09:30:27;;;;;;;7.13;5.93;;;21.50;99.90;;;;;;9527933;31;20039;-83
2022/08/29 09:35:42;;;;;;;6.85;4.60;;;22.10;99.90;;;;;;9560698;31;20073;-82
2022/08/29 09:40:51;;;;;;;7.10;4.40;;;22.60;99.90;;;;;;9565420;31;20039;-82
2022/08/29 09:46:10;;;;;;;7.30;5.28;;;22.10;99.90;;;;;;9553202;31;20027;-83
2022/08/29 09:51:23;;;;;;;7.70;4.40;;;22.50;99.90;;;;;;9556997;31;20753;-84
2022/08/29 09:56:26;;;;;;;7.18;3.60;;;22.90;99.90;;;;;;9571567;31;20047;-83
2022/08/29 10:01:28;;;;;;;5.78;4.32;;;22.80;99.90;;;;;;9575911;31;20059;-83
2022/08/29 10:06:32;;;;;;;9.02;4.47;;;23.00;99.90;;;;;;9563446;31;20032;-82
2022/08/29 10:11:44;;;;;;;5.65;4.25;;;23.40;99.90;;;;;;9580677;31;20828;-83
2022/08/29 10:18:19;;;;;;;6.43;3.92;;;23.50;99.90;;;;;;9568098;30;20031;-83
2022/08/29 10:22:43;;;;;;;6.93;4.60;;;23.50;99.90;;;;;;9558125;31;20516;-83
2022/08/29 10:27:59;;;;;;;6.00;3.77;;;23.60;99.90;;;;;;9581492;31;20050;-83
2022/08/29 10:33:08;;;;;;;7.10;3.95;;;23.60;99.90;;;;;;9573252;31;20358;-83
2022/08/29 10:38:15;;;;;;;9.77;4.55;;;23.70;99.90;;;;;;9558880;31;20035;-84
2022/08/29 10:43:31;;;;;;;6.65;4.30;;;23.50;99.90;;;;;;9552007;31;20364;-84
2022/08/29 10:49:04;;;;;;;5.38;4.15;;;23.90;99.90;;;;;;9543795;31;20513;-82
2022/08/29 10:54:27;;;;;;;10.57;4.80;;;24.10;99.90;;;;;;9542877;31;20055;-82
2022/08/29 10:59:27;;;;;;;9.13;4.13;;;24.60;99.90;;;;;;9538614;31;20036;-83
2022/08/29 11:04:44;;;;;;;5.90;4.18;;;24.20;99.90;;;;;;9550101;31;20035;-83
2022/08/29 11:09:52;;;;;;;5.93;4.22;;;24.30;99.90;;;;;;9542123;31;20123;-85
2022/08/29 11:15:02;;;;;;;7.97;3.85;;;24.50;99.90;;;;;;9555310;31;20052;-83
2022/08/29 11:20:10;;;;;;;6.82;3.95;;;24.20;99.90;;;;;;9550024;31;20516;-83
2022/08/29 11:25:16;;;;;;;8.40;3.90;;;23.90;99.90;;;;;;9542108;31;20056;-83
2022/08/29 11:30:35;;;;;;;9.02;4.00;;;24.00;99.90;;;;;;9554183;31;20039;-83
2022/08/29 11:36:20;;;;;;;7.78;3.53;;;24.30;99.90;;;;;;9549941;31;20051;-82
2022/08/29 11:41:46;;;;;;;6.43;3.60;;;24.80;99.90;;;;;;9539152;31;20036;-83
2022/08/29 11:46:48;;;;;;;8.75;3.78;;;25.00;98.20;;;;;;9549954;31;20051;-84
2022/08/29 11:51:55;;;;;;;7.45;3.35;;;25.20;98.90;;;;;;9550853;31;20055;-82
2022/08/29 11:57:02;;;;;;;6.53;4.10;;;25.30;96.70;;;;;;9546701;31;20094;-83
2022/08/29 12:02:02;;;;;;;8.07;3.83;;;25.30;95.30;;;;;;9546065;31;20047;-85
2022/08/29 12:07:04;;;;;;;4.60;3.53;;;25.10;93.70;;;;;;9542614;31;20440;-83
2022/08/29 12:12:04;;;;;;;8.38;4.00;;;25.10;93.10;;;;;;9560631;31;20039;-83
2022/08/29 12:17:11;;;;;;;8.13;4.28;;;25.30;93.50;;;;;;9555868;31;20572;-85
2022/08/29 12:22:45;;;;;;;7.80;4.00;;;25.30;92.40;;;;;;9550302;31;20153;-84
2022/08/29 12:28:14;;;;;;;7.73;3.83;;;25.50;92.30;;;;;;9558978;31;20036;-84
2022/08/29 12:33:40;;;;;;;10.50;3.25;;;25.10;90.80;;;;;;9539081;31;20054;-85
2022/08/29 12:39:05;;;;;;;6.93;3.40;;;25.10;94.60;;;;;;9546836;31;20402;-84
2022/08/29 12:44:10;;;;;;;6.55;2.83;;;25.40;91.50;;;;;;9544773;31;20032;-86
2022/08/29 12:49:25;;;;;;;5.45;2.85;;;25.20;90.40;;;;;;9558576;31;20051;-83
2022/08/29 12:54:35;;;;;;;6.85;2.45;;;25.40;89.00;;;;;;9538534;31;20083;-86
2022/08/29 12:59:47;;;;;;;5.38;2.75;;;25.40;89.10;;;;;;9560578;31;20114;-85
2022/08/29 13:04:49;;;;;;;12.25;3.00;;;25.50;87.70;;;;;;9536985;31;20971;-86
2022/08/29 13:09:59;;;;;;;7.35;2.88;;;25.50;84.20;;;;;;9542574;31;20441;-86
2022/08/29 13:15:18;;;;;;;4.78;2.50;;;25.60;82.80;;;;;;9550943;31;20031;-85
2022/08/29 13:20:42;;;;;;;6.80;2.55;;;25.50;81.90;;;;;;9550304;31;20143;-85
2022/08/29 13:25:42;;;;;;;4.70;2.47;;;25.30;83.10;;;;;;9540415;31;20562;-86
2022/08/29 13:30:43;;;;;;;5.93;2.53;;;25.10;82.00;;;;;;9546930;31;20048;-85
2022/08/29 13:35:43;;;;;;;5.38;2.80;;;25.20;81.70;;;;;;9540923;30;20135;-85
2022/08/29 13:40:48;;;;;;;7.20;2.40;;;25.00;79.00;;;;;;9556968;31;20450;-85
2022/08/29 13:45:48;;;;;;;6.70;2.35;;;25.00;79.20;;;;;;9550574;31;20047;-86
2022/08/29 13:50:49;;;;;;;8.57;2.55;;;24.90;81.50;;;;;;9547438;31;20411;-86
2022/08/29 13:55:49;;;;;;;8.77;2.40;;;24.80;81.10;;;;;;9545876;30;20055;-85
2022/08/29 14:00:50;;;;;;;5.88;2.85;;;24.80;82.00;;;;;;9548545;31;20103;-86
2022/08/29 14:05:55;;;;;;;6.88;2.55;;;24.60;79.70;;;;;;9555909;31;20051;-85
2022/08/29 14:10:55;;;;;;;7.00;2.65;;;24.20;80.00;;;;;;9542114;31;20036;-86
2022/08/29 14:15:56;;;;;;;5.90;2.55;;;24.00;82.90;;;;;;9557706;31;20047;-87
2022/08/29 14:20:57;;;;;;;5.32;2.33;;;24.10;82.90;;;;;;9545107;31;20048;-87
2022/08/29 14:25:57;;;;;;;5.45;2.38;;;24.10;81.40;;;;;;9545992;31;20040;-85
2022/08/29 14:30:58;;;;;;;7.32;2.80;;;23.90;80.90;;;;;;9541853;31;20048;-86
2022/08/29 14:35:59;;;;;;;10.38;2.70;;;23.70;78.50;;;;;;9545027;31;20040;-85
2022/08/29 14:40:59;;;;;;;6.45;2.83;;;23.50;79.80;;;;;;9552426;31;20047;-87
2022/08/29 14:46:00;;;;;;;7.65;2.75;;;23.40;80.50;;;;;;9548197;31;20028;-87
2022/08/29 14:51:01;;;;;;;5.82;2.30;;;23.40;79.40;;;;;;9539883;31;20039;-87
2022/08/29 14:56:01;;;;;;;4.90;2.00;;;23.30;79.20;;;;;;9546427;31;20048;-85
2022/08/29 15:01:03;;;;;;;5.47;2.40;;;23.20;80.10;;;;;;9540415;31;20036;-85
2022/08/29 15:06:04;;;;;;;4.07;1.98;;;23.10;78.10;;;;;;9538925;31;20094;-87
2022/08/29 15:11:05;;;;;;;11.38;5.50;;;23.10;79.50;;;;;;9551483;31;20046;-85
2022/08/29 15:16:06;;;;;;;4.20;2.40;;;23.00;79.70;;;;;;9547526;31;20059;-88
2022/08/29 15:21:07;;;;;;;6.13;2.38;;;23.00;79.00;;;;;;9541608;30;20047;-85
2022/08/29 15:26:07;;;;;;;14.77;3.22;;;22.80;78.60;;;;;;9560028;31;20504;-83
2022/08/29 15:31:08;;;;;;;3.90;2.75;;;22.70;79.10;;;;;;9551776;31;20048;-84
2022/08/29 15:36:09;;;;;;;7.00;2.17;;;22.70;79.60;;;;;;9548271;31;20048;-86
2022/08/29 15:41:09;;;;;;;6.43;2.25;;;22.60;79.50;;;;;;9555338;31;20036;-86
2022/08/29 15:46:10;;;;;;;4.70;2.20;;;22.50;79.10;;;;;;9535301;31;20062;-87
2022/08/29 15:51:10;;;;;;;6.30;2.50;;;22.40;81.30;;;;;;9535164;31;20096;-85
2022/08/29 15:56:11;;;;;;;6.18;2.33;;;22.40;81.50;;;;;;9542992;31;20477;-86
2022/08/29 16:01:12;;;;;;;6.32;2.30;;;22.30;80.60;;;;;;9533525;31;20040;-84
2022/08/29 16:06:12;;;;;;;5.07;2.38;;;22.20;80.30;;;;;;9546429;31;20137;-84
2022/08/29 16:11:13;;;;;;;5.97;2.80;;;22.10;81.10;;;;;;9538380;31;20039;-85
2022/08/29 16:16:13;;;;;;;7.13;2.65;;;22.00;81.40;;;;;;9550015;31;20051;-85
2022/08/29 16:21:16;;;;;;;6.72;2.63;;;21.90;81.60;;;;;;9552343;31;20554;-83
2022/08/29 16:26:18;;;;;;;4.45;2.42;;;21.80;82.60;;;;;;9542445;31;20111;-87
2022/08/29 16:31:19;;;;;;;4.97;2.28;;;21.70;80.90;;;;;;9537535;31;20470;-85
2022/08/29 16:36:21;;;;;;;7.55;2.60;;;21.60;82.20;;;;;;9542189;31;20050;-86
2022/08/29 16:41:23;;;;;;;5.05;2.67;;;21.50;81.70;;;;;;9539256;31;20046;-85
2022/08/29 16:46:25;;;;;;;6.40;2.60;;;21.30;82.90;;;;;;9540243;31;20086;-80
2022/08/29 16:51:27;;;;;;;6.90;2.50;;;21.10;84.40;;;;;;9540869;31;20040;-81
2022/08/29 16:56:27;;;;;;;10.07;2.65;;;20.90;86.70;;;;;;9550928;31;20047;-82
2022/08/29 17:01:49;;;;;;;5.50;2.70;;;20.60;88.30;;;;;;9541208;31;20077;-81
2022/08/29 17:06:51;;;;;;;5.88;3.03;;;20.20;89.20;;;;;;9544635;31;20043;-82
2022/08/29 17:16:54;;;;;;;5.10;2.70;;;19.30;92.40;;;;;;9541162;31;20158;-83
2022/08/29 17:21:54;;;;;;;6.30;3.15;;;19.00;93.80;;;;;;9557080;31;20140;-82
2022/08/29 17:26:56;;;;;;;9.27;3.60;;;18.60;95.60;;;;;;9546126;31;20031;-83
2022/08/29 17:31:57;;;;;;;6.30;3.42;;;18.20;98.10;;;;;;9539208;31;20405;-82
2022/08/29 17:36:57;;;;;;;8.32;3.40;;;18.00;99.50;;;;;;9544033;31;20051;-81
2022/08/29 17:41:58;;;;;;;8.95;3.75;;;18.10;98.60;;;;;;9547836;31;20739;-81
2022/08/29 17:46:59;;;;;;;7.32;3.88;;;18.20;99.60;;;;;;9540719;31;20138;-84
2022/08/29 17:52:00;;;;;;;8.77;3.97;;;18.00;99.90;;;;;;9530343;31;20040;-83
2022/08/29 17:57:01;;;;;;;8.45;3.97;;;17.70;99.90;;;;;;9547792;30;20063;-84
2022/08/29 18:02:01;;;;;;;11.32;4.13;;;17.40;99.90;;;;;;9545579;31;20063;-85
2022/08/29 18:07:02;;;;;;;9.43;4.10;;;17.20;99.90;;;;;;9549805;30;20119;-84
2022/08/29 18:12:03;;;;;;;8.23;4.18;;;17.10;99.90;;;;;;9542531;31;20047;-82
2022/08/29 18:17:04;;;;;;;6.20;3.83;;;16.80;99.90;;;;;;9537377;31;20043;-80
2022/08/29 18:22:05;;;;;;;6.75;3.45;;;16.50;99.90;;;;;;9551798;31;20071;-81
2022/08/29 18:27:05;;;;;;;9.43;4.00;;;16.30;99.90;;;;;;9553422;31;20040;-82
2022/08/29 18:32:06;;;;;;;7.53;3.92;;;16.10;99.90;;;;;;9549021;31;20375;-82
2022/08/29 18:37:07;;;;;;;9.95;4.40;;;15.90;99.90;;;;;;9548135;31;20044;-82
2022/08/29 18:42:07;;;;;;;11.77;5.22;;;15.80;99.90;;;;;;9553268;31;20039;-81
2022/08/29 18:47:09;;;;;;;7.63;4.28;;;15.70;99.90;;;;;;9547662;31;20557;-81
2022/08/29 18:52:13;;;;;;;11.80;4.10;;;15.60;99.90;;;;;;9555355;31;20130;-81
2022/08/29 18:57:13;;;;;;;12.05;4.28;;;15.50;99.90;;;;;;9544131;31;20040;-83
2022/08/29 19:02:14;;;;;;;8.02;5.03;;;15.40;99.90;;;;;;9541518;31;20054;-83
2022/08/29 19:07:15;;;;;;;7.63;4.13;;;15.30;99.90;;;;;;9540954;31;20051;-83
2022/08/29 19:12:16;;;;;;;10.52;4.18;;;15.30;99.90;;;;;;9537655;31;20055;-83
2022/08/29 19:17:16;;;;;;;13.18;4.63;;;15.20;99.90;;;;;;9535295;31;20035;-80
2022/08/29 19:22:17;;;;;;;12.00;4.32;;;15.20;99.90;;;;;;9553339;31;20062;-81
2022/08/29 19:27:18;;;;;;;8.15;4.00;;;15.10;99.90;;;;;;9544114;31;20434;-83
2022/08/29 19:32:18;;;;;;;9.77;4.53;;;15.10;99.90;;;;;;9548434;30;20078;-80
2022/08/29 19:37:19;;;;;;;9.63;4.40;;;15.10;99.90;;;;;;9537665;31;20047;-80
2022/08/29 19:42:20;;;;;;;6.40;4.13;;;15.10;99.90;;;;;;9544517;31;20066;-82
2022/08/29 19:47:20;;;;;;;8.20;4.07;;;15.00;99.90;;;;;;9550371;31;20072;-81
2022/08/29 19:52:21;;;;;;;8.13;4.15;;;15.00;99.90;;;;;;9546088;31;20055;-80
2022/08/29 19:57:22;;;;;;;10.45;4.90;;;14.90;99.90;;;;;;9542906;31;20942;-81
2022/08/29 20:02:22;;;;;;;9.93;4.20;;;14.80;99.90;;;;;;9541917;31;20048;-81
2022/08/29 20:07:23;;;;;;;9.27;4.45;;;14.80;99.90;;;;;;9540895;31;20031;-81
2022/08/29 20:12:24;;;;;;;10.32;4.57;;;14.70;99.90;;;;;;9551427;31;20763;-82
2022/08/29 20:17:24;;;;;;;13.45;4.28;;;14.70;99.90;;;;;;9551975;31;20043;-81
2022/08/29 20:22:28;;;;;;;9.98;4.20;;;14.70;99.90;;;;;;9541275;31;20138;-81
2022/08/29 20:27:28;;;;;;;7.82;4.55;;;14.80;99.90;;;;;;9547955;31;20035;-81
2022/08/29 20:32:30;;;;;;;11.38;4.30;;;14.80;99.90;;;;;;9553118;31;20055;-79
2022/08/29 20:37:30;;;;;;;10.77;4.47;;;14.70;99.90;;;;;;9552275;31;20075;-80
2022/08/29 20:42:31;;;;;;;6.97;4.20;;;14.60;99.90;;;;;;9538206;31;20549;-80
2022/08/29 20:47:32;;;;;;;10.90;4.57;;;14.60;99.90;;;;;;9555941;31;20498;-82
2022/08/29 20:52:35;;;;;;;12.98;4.70;;;14.50;99.90;;;;;;9545268;31;20051;-81
2022/08/29 20:57:38;;;;;;;12.80;5.35;;;14.40;99.90;;;;;;9555652;31;20174;-82
2022/08/29 21:07:57;;;;;;;13.10;6.63;;;14.20;99.90;;;;;;9540173;31;20079;-82
2022/08/29 21:12:58;;;;;;;12.38;6.88;;;14.10;99.90;;;;;;9551272;31;20122;-82
2022/08/29 21:17:59;;;;;;;14.95;6.53;;;14.00;99.90;;;;;;9538154;31;20051;-81
2022/08/29 21:23:02;;;;;;;17.58;7.22;;;14.00;99.90;;;;;;9536911;31;20581;-80
2022/08/29 21:28:03;;;;;;;11.95;5.78;;;14.10;99.90;;;;;;9548224;31;20438;-80
2022/08/29 21:33:04;;;;;;;10.27;5.28;;;14.00;99.90;;;;;;9561352;31;20055;-81
2022/08/29 21:38:05;;;;;;;14.80;5.53;;;14.10;99.90;;;;;;9556474;30;20107;-80
2022/08/29 21:43:07;;;;;;;13.88;4.93;;;14.10;99.90;;;;;;9538314;31;20087;-80
2022/08/29 21:48:07;;;;;;;12.77;5.32;;;14.10;99.90;;;;;;9539404;31;20039;-79
2022/08/29 21:53:13;;;;;;;9.93;4.53;;;14.10;99.90;;;;;;9539169;31;20048;-82
2022/08/29 21:58:13;;;;;;;11.65;5.45;;;14.20;99.90;;;;;;9563687;31;20091;-81
2022/08/29 22:03:14;;;;;;;7.78;4.65;;;14.10;99.90;;;;;;9549412;31;20123;-81
2022/08/29 22:08:15;;;;;;;9.23;4.38;;;14.10;99.90;;;;;;9540864;31;20077;-82
2022/08/29 22:13:16;;;;;;;13.52;5.15;;;14.20;99.90;;;;;;9555128;31;20478;-81
2022/08/29 22:18:17;;;;;;;9.30;4.65;;;14.10;99.90;;;;;;9544731;31;20040;-80
2022/08/29 22:23:19;;;;;;;10.10;5.30;;;14.10;99.90;;;;;;9565044;31;20066;-81
2022/08/29 22:28:20;;;;;;;10.90;4.90;;;14.00;99.90;;;;;;9551731;31;20134;-80
2022/08/29 22:33:20;;;;;;;9.13;4.63;;;14.10;99.90;;;;;;9549833;31;20047;-80
2022/08/29 22:38:21;;;;;;;8.45;4.55;;;14.10;99.90;;;;;;9558254;31;20054;-80
2022/08/29 22:43:22;;;;;;;8.35;4.30;;;14.10;99.90;;;;;;9562703;31;20051;-81
2022/08/29 22:48:22;;;;;;;8.75;5.10;;;14.00;99.90;;;;;;9547987;31;20048;-82
2022/08/29 22:53:23;;;;;;;13.57;6.40;;;14.00;99.90;;;;;;9554730;31;20051;-79
2022/08/29 22:58:23;;;;;;;16.67;6.22;;;13.90;99.90;;;;;;9559262;31;20040;-82
2022/08/29 23:03:24;;;;;;;15.77;6.15;;;13.90;99.90;;;;;;9547656;31;20044;-81
2022/08/29 23:08:24;;;;;;;11.20;5.65;;;13.80;99.90;;;;;;9543585;31;20055;-81
2022/08/29 23:13:25;;;;;;;13.95;6.63;;;13.70;99.90;;;;;;9547126;31;20067;-81
2022/08/29 23:18:25;;;;;;;11.75;6.35;;;13.70;99.90;;;;;;9545489;31;20048;-80
2022/08/29 23:23:26;;;;;;;13.90;5.40;;;13.60;99.90;;;;;;9544727;31;20154;-81
2022/08/29 23:28:26;;;;;;;11.00;5.43;;;13.50;99.90;;;;;;9554994;31;20389;-80
2022/08/29 23:33:27;;;;;;;14.95;6.40;;;13.50;99.90;;;;;;9546341;31;20879;-80
2022/08/29 23:38:28;;;;;;;12.68;5.57;;;13.60;99.90;;;;;;9547439;30;20074;-81
2022/08/29 23:43:30;;;;;;;18.05;6.82;;;13.60;99.90;;;;;;9545126;31;20130;-80
2022/08/29 23:48:32;;;;;;;11.93;5.50;;;13.50;99.90;;;;;;9540784;31;20094;-81
2022/08/29 23:53:33;;;;;;;15.85;6.60;;;13.40;99.90;;;;;;9552820;31;20161;-81
2022/08/29 23:58:34;;;;;;;13.85;6.80;;;13.40;99.90;;;;;;9552695;31;20450;-81
